createdAt,value
2019-01-02T00:00:39.325Z,1.40
2019-01-02T00:03:12.266Z,1.00
2019-01-02T00:05:44.314Z,1.83
2019-01-02T00:08:15.822Z,1.20
2019-01-02T00:10:47.206Z,1.23
2019-01-02T00:13:18.633Z,0.90
2019-01-02T00:15:50.009Z,1.27
2019-01-02T00:18:22.643Z,2.87
2019-01-02T00:20:54.167Z,1.50
2019-01-02T00:23:25.848Z,1.50
2019-01-02T00:25:57.355Z,1.53
2019-01-02T00:28:28.751Z,1.17
2019-01-02T00:31:00.197Z,1.30
2019-01-02T00:33:31.846Z,1.17
2019-01-02T00:36:04.093Z,1.30
2019-01-02T00:38:35.440Z,1.33
2019-01-02T00:41:07.175Z,1.27
2019-01-02T00:43:39.018Z,1.00
2019-01-02T00:46:10.800Z,1.13
2019-01-02T00:48:42.398Z,1.53
2019-01-02T00:51:13.796Z,1.53
2019-01-02T00:53:45.306Z,1.50
2019-01-02T00:56:17.026Z,1.37
2019-01-02T00:58:48.620Z,1.50
2019-01-02T01:01:20.032Z,1.50
2019-01-02T01:03:51.891Z,1.43
2019-01-02T01:06:23.655Z,1.17
2019-01-02T01:08:55.046Z,2.03
2019-01-02T01:11:26.544Z,1.83
2019-01-02T01:13:58.455Z,2.03
2019-01-02T01:16:29.862Z,1.67
2019-01-02T01:19:01.563Z,1.70
2019-01-02T01:21:32.968Z,1.93
2019-01-02T01:24:05.584Z,1.73
2019-01-02T01:26:38.007Z,2.23
2019-01-02T01:29:09.532Z,1.93
2019-01-02T01:31:41.315Z,2.17
2019-01-02T01:34:12.714Z,1.50
2019-01-02T01:36:44.088Z,2.00
2019-01-02T01:39:15.649Z,2.37
2019-01-02T01:41:47.153Z,1.20
2019-01-02T01:44:18.519Z,1.87
2019-01-02T01:46:49.930Z,1.50
2019-01-02T01:49:21.331Z,1.50
2019-01-02T01:51:53.303Z,1.13
2019-01-02T01:54:24.740Z,2.17
2019-01-02T01:56:56.175Z,1.20
2019-01-02T01:59:27.935Z,1.30
2019-01-02T02:01:59.686Z,1.07
2019-01-02T02:04:31.047Z,1.37
2019-01-02T02:07:02.880Z,1.23
2019-01-02T02:09:34.653Z,1.17
2019-01-02T02:12:06.203Z,1.30
2019-01-02T02:14:38.845Z,1.20
2019-01-02T02:17:10.355Z,1.70
2019-01-02T02:19:41.846Z,1.43
2019-01-02T02:22:13.501Z,1.30
2019-01-02T02:24:45.970Z,1.27
2019-01-02T02:27:17.755Z,1.30
2019-01-02T02:29:49.161Z,1.67
2019-01-02T02:32:20.559Z,1.80
2019-01-02T02:34:51.948Z,2.17
2019-01-02T02:37:23.355Z,1.67
2019-01-02T02:39:54.747Z,1.97
2019-01-02T02:42:26.156Z,1.50
2019-01-02T02:44:57.962Z,2.30
2019-01-02T02:47:29.749Z,2.67
2019-01-02T02:50:01.476Z,2.87
2019-01-02T02:52:32.880Z,1.60
2019-01-02T02:55:04.302Z,1.70
2019-01-02T02:57:35.671Z,1.63
2019-01-02T03:00:10.965Z,1.60
2019-01-02T03:02:42.539Z,2.37
2019-01-02T03:05:15.192Z,0.93
2019-01-02T03:07:47.092Z,1.80
2019-01-02T03:10:18.819Z,0.73
2019-01-02T03:12:51.162Z,2.23
2019-01-02T03:15:22.852Z,0.73
2019-01-02T03:17:54.247Z,1.37
2019-01-02T03:20:25.655Z,1.67
2019-01-02T03:22:57.080Z,1.23
2019-01-02T03:25:28.748Z,2.53
2019-01-02T03:28:00.720Z,1.60
2019-01-02T03:30:32.500Z,0.87
2019-01-02T03:33:04.631Z,0.83
2019-01-02T03:35:35.987Z,1.03
2019-01-02T03:38:07.405Z,1.60
2019-01-02T03:40:39.067Z,1.63
2019-01-02T03:43:10.828Z,0.60
2019-01-02T03:45:42.306Z,1.00
2019-01-02T03:48:13.782Z,0.87
2019-01-02T03:50:45.228Z,1.03
2019-01-02T03:53:16.615Z,1.17
2019-01-02T03:55:48.168Z,0.57
2019-01-02T03:58:19.616Z,1.37
2019-01-02T04:00:51.017Z,2.40
2019-01-02T04:03:22.439Z,1.53
2019-01-02T04:05:54.921Z,1.83
2019-01-02T04:08:27.228Z,0.97
2019-01-02T04:10:58.713Z,0.73
2019-01-02T04:13:30.106Z,2.47
2019-01-02T04:16:01.472Z,1.60
2019-01-02T04:18:32.870Z,1.27
2019-01-02T04:21:06.248Z,0.70
2019-01-02T04:23:37.625Z,1.20
2019-01-02T04:26:09.006Z,1.23
2019-01-02T04:28:40.519Z,1.37
2019-01-02T04:31:12.184Z,3.03
2019-01-02T04:33:43.631Z,0.87
2019-01-02T04:36:15.802Z,1.53
2019-01-02T04:38:47.352Z,1.53
2019-01-02T04:41:18.853Z,4.07
2019-01-02T04:43:50.251Z,1.53
2019-01-02T04:46:21.654Z,1.00
2019-01-02T04:48:53.048Z,1.07
2019-01-02T04:51:24.443Z,0.77
2019-01-02T04:53:55.856Z,0.70
2019-01-02T04:56:27.238Z,1.90
2019-01-02T04:58:59.560Z,1.37
2019-01-02T05:01:30.968Z,1.13
2019-01-02T05:04:02.522Z,4.07
2019-01-02T05:06:33.864Z,1.07
2019-01-02T05:09:07.096Z,2.03
2019-01-02T05:11:39.428Z,0.80
2019-01-02T05:14:10.943Z,2.63
2019-01-02T05:16:42.367Z,2.63
2019-01-02T05:19:13.782Z,1.53
2019-01-02T05:21:45.582Z,1.23
2019-01-02T05:24:17.268Z,2.17
2019-01-02T05:26:48.799Z,1.87
2019-01-02T05:29:20.580Z,3.53
2019-01-02T05:31:52.042Z,2.03
2019-01-02T05:34:23.490Z,2.00
2019-01-02T05:36:55.242Z,1.83
2019-01-02T05:39:26.786Z,2.50
2019-01-02T05:42:00.623Z,2.97
2019-01-02T05:44:32.039Z,1.33
2019-01-02T05:47:03.803Z,2.60
2019-01-02T05:49:35.250Z,2.50
2019-01-02T05:52:06.972Z,4.50
2019-01-02T05:54:38.353Z,4.33
2019-01-02T05:57:10.028Z,2.67
2019-01-02T05:59:41.833Z,2.27
2019-01-02T06:02:13.539Z,2.23
2019-01-02T06:04:45.654Z,2.13
2019-01-02T06:07:17.195Z,1.70
2019-01-02T06:09:48.638Z,2.53
2019-01-02T06:12:20.374Z,2.23
2019-01-02T06:14:52.045Z,2.90
2019-01-02T06:17:23.488Z,3.53
2019-01-02T06:19:55.257Z,1.23
2019-01-02T06:22:26.659Z,2.60
2019-01-02T06:25:00.820Z,4.27
2019-01-02T06:27:32.183Z,2.43
2019-01-02T06:30:03.599Z,3.70
2019-01-02T06:32:35.003Z,3.97
2019-01-02T06:35:06.888Z,2.93
2019-01-02T06:37:38.306Z,2.23
2019-01-02T06:40:11.913Z,1.77
2019-01-02T06:42:43.319Z,1.67
2019-01-02T06:45:16.831Z,3.10
2019-01-02T06:47:48.836Z,4.37
2019-01-02T06:50:23.105Z,1.17
2019-01-02T06:52:54.851Z,3.07
2019-01-02T06:55:26.254Z,1.67
2019-01-02T06:57:57.953Z,4.60
2019-01-02T07:00:34.790Z,1.30
2019-01-02T07:03:06.155Z,3.43
2019-01-02T07:05:37.604Z,2.77
2019-01-02T07:08:09.289Z,1.33
2019-01-02T07:10:40.762Z,2.53
2019-01-02T07:13:12.689Z,1.60
2019-01-02T07:15:44.298Z,1.37
2019-01-02T07:18:15.980Z,1.33
2019-01-02T07:20:47.555Z,2.33
2019-01-02T07:23:19.294Z,4.17
2019-01-02T07:25:51.097Z,2.93
2019-01-02T07:28:22.507Z,2.00
2019-01-02T07:30:53.969Z,1.20
2019-01-02T07:33:38.271Z,2.83
2019-01-02T07:36:56.804Z,4.60
2019-01-02T07:40:14.677Z,5.20
2019-01-02T07:43:51.544Z,4.23
2019-01-02T07:46:58.616Z,4.13
2019-01-02T07:50:10.821Z,2.80
2019-01-02T07:53:31.958Z,2.10
2019-01-02T07:56:37.036Z,4.10
2019-01-02T07:59:39.804Z,4.23
2019-01-02T08:02:48.037Z,4.03
2019-01-02T08:05:42.976Z,4.47
2019-01-02T08:08:45.782Z,3.07
2019-01-02T08:11:48.436Z,3.13
2019-01-02T08:15:02.874Z,4.17
2019-01-02T08:17:54.127Z,5.50
2019-01-02T08:21:19.186Z,4.57
2019-01-02T08:24:44.554Z,3.07
2019-01-02T08:27:51.388Z,3.47
2019-01-02T08:31:11.381Z,2.33
2019-01-02T08:34:35.185Z,5.03
2019-01-02T08:37:38.886Z,5.47
2019-01-02T08:40:54.172Z,5.47
2019-01-02T08:44:11.650Z,4.27
2019-01-02T08:47:22.153Z,3.10
2019-01-02T08:50:22.766Z,4.93
2019-01-02T08:53:25.129Z,4.97
2019-01-02T08:56:30.371Z,3.13
2019-01-02T08:59:48.046Z,5.80
2019-01-02T09:03:02.184Z,5.40
2019-01-02T09:05:58.541Z,3.17
2019-01-02T09:09:11.002Z,3.63
2019-01-02T09:12:29.418Z,3.73
2019-01-02T09:16:09.443Z,2.57
2019-01-02T09:19:01.435Z,3.27
2019-01-02T09:22:20.318Z,3.03
2019-01-02T09:25:35.993Z,3.93
2019-01-02T09:28:47.133Z,3.83
2019-01-02T09:31:48.762Z,4.37
2019-01-02T09:34:59.642Z,3.00
2019-01-02T09:37:52.378Z,2.80
2019-01-02T09:41:19.808Z,4.23
2019-01-02T09:44:23.959Z,4.43
2019-01-02T09:47:41.192Z,2.27
2019-01-02T09:50:37.701Z,5.33
2019-01-02T09:53:47.030Z,6.17
2019-01-02T09:56:47.065Z,3.53
2019-01-02T10:00:01.660Z,3.10
2019-01-02T10:03:11.962Z,5.80
2019-01-02T10:06:26.347Z,3.27
2019-01-02T10:09:41.583Z,3.63
2019-01-02T10:12:41.086Z,2.00
2019-01-02T10:15:45.660Z,3.63
2019-01-02T10:18:39.538Z,3.93
2019-01-02T10:21:44.079Z,5.53
2019-01-02T10:24:29.566Z,3.83
2019-01-02T10:27:47.881Z,3.77
2019-01-02T10:30:50.718Z,3.40
2019-01-02T10:33:59.374Z,2.47
2019-01-02T10:37:06.115Z,3.00
2019-01-02T10:40:04.964Z,5.70
2019-01-02T10:43:05.328Z,2.40
2019-01-02T10:46:27.733Z,3.03
2019-01-02T10:49:54.256Z,4.73
2019-01-02T10:53:06.514Z,2.50
2019-01-02T10:56:15.975Z,3.43
2019-01-02T10:59:24.275Z,5.27
2019-01-02T11:02:38.777Z,3.70
2019-01-02T11:06:01.017Z,3.83
2019-01-02T11:08:56.726Z,2.53
2019-01-02T11:12:20.925Z,3.67
2019-01-02T11:15:20.392Z,4.33
2019-01-02T11:18:07.418Z,2.57
2019-01-02T11:21:17.134Z,4.70
2019-01-02T11:24:25.479Z,4.07
2019-01-02T11:27:50.821Z,3.00
2019-01-02T11:31:12.690Z,2.80
2019-01-02T11:34:35.533Z,2.73
2019-01-02T11:37:31.686Z,3.83
2019-01-02T11:40:52.115Z,6.33
2019-01-02T11:44:21.206Z,3.83
2019-01-02T11:46:48.711Z,2.97
2019-01-02T11:49:20.480Z,2.20
2019-01-02T11:51:51.993Z,3.53
2019-01-02T11:54:23.463Z,2.00
2019-01-02T11:56:54.879Z,4.03
2019-01-02T11:59:26.476Z,3.87
2019-01-02T12:01:57.994Z,2.47
2019-01-02T12:04:29.407Z,2.40
2019-01-02T12:07:01.254Z,2.03
2019-01-02T12:09:32.703Z,3.53
2019-01-02T12:12:04.317Z,2.73
2019-01-02T12:14:35.739Z,3.93
2019-01-02T12:17:07.101Z,3.97
2019-01-02T12:19:38.630Z,2.57
2019-01-02T12:22:10.049Z,4.03
2019-01-02T12:24:41.475Z,3.17
2019-01-02T12:27:12.969Z,3.40
2019-01-02T12:29:44.452Z,3.77
2019-01-02T12:32:15.865Z,4.20
2019-01-02T12:34:47.309Z,2.73
2019-01-02T12:37:18.802Z,4.70
2019-01-02T12:39:50.173Z,3.63
2019-01-02T12:42:21.562Z,2.87
2019-01-02T12:44:52.987Z,1.90
2019-01-02T12:47:24.504Z,5.07
2019-01-02T12:49:55.879Z,3.50
2019-01-02T12:52:27.478Z,5.00
2019-01-02T12:54:58.925Z,2.83
2019-01-02T12:57:30.753Z,3.90
2019-01-02T13:00:02.128Z,2.10
2019-01-02T13:03:10.966Z,4.07
2019-01-02T13:06:26.488Z,3.40
2019-01-02T13:09:51.050Z,2.40
2019-01-02T13:12:51.065Z,3.87
2019-01-02T13:16:27.666Z,5.27
2019-01-02T13:19:40.195Z,6.03
2019-01-02T13:23:17.089Z,3.87
2019-01-02T13:26:03.862Z,2.77
2019-01-02T13:29:10.150Z,3.23
2019-01-02T13:32:43.899Z,5.20
2019-01-02T13:35:48.410Z,2.47
2019-01-02T13:38:35.584Z,2.27
2019-01-02T13:41:43.426Z,3.53
2019-01-02T13:44:47.420Z,1.40
2019-01-02T13:48:33.789Z,4.17
2019-01-02T13:51:12.251Z,1.67
2019-01-02T13:53:44.670Z,2.80
2019-01-02T13:56:19.377Z,5.10
2019-01-02T13:58:50.814Z,3.93
2019-01-02T14:01:22.262Z,2.17
2019-01-02T14:03:56.675Z,3.47
2019-01-02T14:06:28.094Z,2.03
2019-01-02T14:08:59.487Z,2.93
2019-01-02T14:11:30.899Z,6.50
2019-01-02T14:14:02.326Z,2.73
2019-01-02T14:16:34.819Z,4.77
2019-01-02T14:19:06.236Z,1.87
2019-01-02T14:21:37.661Z,4.60
2019-01-02T14:24:09.049Z,3.77
2019-01-02T14:26:40.489Z,2.83
2019-01-02T14:29:11.910Z,2.53
2019-01-02T14:31:43.255Z,3.43
2019-01-02T14:34:14.661Z,2.47
2019-01-02T14:36:46.117Z,5.57
2019-01-02T14:39:17.467Z,4.53
2019-01-02T14:41:48.936Z,2.87
2019-01-02T14:44:20.394Z,1.87
2019-01-02T14:46:52.075Z,3.97
2019-01-02T14:49:23.795Z,2.63
2019-01-02T14:51:55.653Z,2.27
2019-01-02T14:54:27.111Z,3.87
2019-01-02T14:56:58.561Z,1.70
2019-01-02T14:59:30.320Z,1.70
2019-01-02T15:02:01.698Z,6.40
2019-01-02T15:04:33.103Z,2.97
2019-01-02T15:07:04.495Z,5.33
2019-01-02T15:09:35.894Z,3.33
2019-01-02T15:12:07.303Z,2.03
2019-01-02T15:14:38.709Z,1.83
2019-01-02T15:17:10.099Z,3.37
2019-01-02T15:19:41.541Z,1.27
2019-01-02T15:22:12.891Z,1.97
2019-01-02T15:24:49.440Z,7.33
2019-01-02T15:27:17.448Z,5.17
2019-01-02T15:29:49.238Z,1.47
2019-01-02T15:32:20.933Z,3.53
2019-01-02T15:34:52.361Z,4.10
2019-01-02T15:37:23.775Z,2.93
2019-01-02T15:39:55.204Z,1.70
2019-01-02T15:42:26.550Z,1.67
2019-01-02T15:45:01.081Z,3.10
2019-01-02T15:47:32.419Z,1.63
2019-01-02T15:50:04.351Z,6.63
2019-01-02T15:52:35.897Z,7.73
2019-01-02T15:55:08.018Z,8.03
2019-01-02T15:57:39.357Z,6.40
2019-01-02T16:00:13.628Z,6.67
2019-01-02T16:02:45.028Z,3.97
2019-01-02T16:05:16.425Z,4.80
2019-01-02T16:07:48.075Z,4.97
2019-01-02T16:10:19.444Z,6.97
2019-01-02T16:12:50.840Z,10.47
2019-01-02T16:15:22.619Z,8.77
2019-01-02T16:17:54.411Z,8.10
2019-01-02T16:20:25.885Z,7.50
2019-01-02T16:22:57.761Z,5.53
2019-01-02T16:25:29.690Z,5.40
2019-01-02T16:28:01.274Z,5.20
2019-01-02T16:30:33.058Z,6.80
2019-01-02T16:33:04.595Z,4.20
2019-01-02T16:35:36.331Z,5.83
2019-01-02T16:38:07.720Z,5.20
2019-01-02T16:40:39.208Z,6.43
2019-01-02T16:43:11.035Z,4.07
2019-01-02T16:45:42.551Z,3.53
2019-01-02T16:48:14.918Z,2.83
2019-01-02T16:50:46.558Z,4.43
2019-01-02T16:53:17.903Z,2.00
2019-01-02T16:55:49.363Z,6.47
2019-01-02T16:58:20.857Z,3.73
2019-01-02T17:00:52.457Z,3.30
2019-01-02T17:03:24.357Z,3.37
2019-01-02T17:05:56.415Z,3.30
2019-01-02T17:08:28.086Z,2.40
2019-01-02T17:10:59.511Z,3.93
2019-01-02T17:13:30.913Z,7.07
2019-01-02T17:16:02.698Z,5.87
2019-01-02T17:18:34.093Z,8.40
2019-01-02T17:21:05.640Z,7.40
2019-01-02T17:23:39.111Z,5.00
2019-01-02T17:26:10.898Z,14.50
2019-01-02T17:28:45.192Z,23.17
2019-01-02T17:31:16.989Z,15.97
2019-01-02T17:33:48.435Z,19.20
2019-01-02T17:36:19.922Z,20.83
2019-01-02T17:38:51.665Z,15.97
2019-01-02T17:41:34.417Z,13.67
2019-01-02T17:44:05.849Z,17.27
2019-01-02T17:46:37.457Z,11.87
2019-01-02T17:49:10.016Z,11.73
2019-01-02T17:51:41.681Z,6.13
2019-01-02T17:54:14.031Z,5.00
2019-01-02T17:56:45.675Z,6.43
2019-01-02T17:59:17.498Z,7.80
2019-01-02T18:01:49.178Z,7.37
2019-01-02T18:04:20.603Z,7.70
2019-01-02T18:06:52.207Z,4.83
2019-01-02T18:09:24.182Z,6.20
2019-01-02T18:11:55.951Z,5.13
2019-01-02T18:14:27.417Z,5.33
2019-01-02T18:16:58.866Z,6.53
2019-01-02T18:19:30.670Z,6.87
2019-01-02T18:22:02.320Z,8.20
2019-01-02T18:24:33.844Z,10.90
2019-01-02T18:27:05.571Z,5.20
2019-01-02T18:29:36.983Z,4.67
2019-01-02T18:32:09.187Z,4.30
2019-01-02T18:34:40.606Z,4.67
2019-01-02T18:37:12.498Z,4.43
2019-01-02T18:39:43.965Z,5.97
2019-01-02T18:42:15.616Z,14.87
2019-01-02T18:44:47.287Z,13.07
2019-01-02T18:47:19.223Z,6.70
2019-01-02T18:49:50.734Z,30.77
2019-01-02T18:52:22.364Z,22.97
2019-01-02T18:54:54.222Z,10.00
2019-01-02T18:57:25.783Z,7.73
2019-01-02T18:59:57.348Z,5.60
2019-01-02T19:02:28.748Z,6.23
2019-01-02T19:05:00.596Z,3.63
2019-01-02T19:07:33.531Z,5.40
2019-01-02T19:10:05.265Z,12.60
2019-01-02T19:12:36.638Z,7.80
2019-01-02T19:15:09.302Z,7.70
2019-01-02T19:17:41.048Z,9.63
2019-01-02T19:20:12.641Z,7.87
2019-01-02T19:22:44.059Z,5.67
2019-01-02T19:25:15.537Z,6.33
2019-01-02T19:27:47.432Z,7.03
2019-01-02T19:30:18.799Z,7.47
2019-01-02T19:32:51.868Z,6.57
2019-01-02T19:35:23.268Z,9.00
2019-01-02T19:37:54.759Z,5.27
2019-01-02T19:40:26.209Z,6.37
2019-01-02T19:42:58.354Z,5.27
2019-01-02T19:45:31.509Z,4.70
2019-01-02T19:48:03.080Z,8.27
2019-01-02T19:50:35.003Z,4.90
2019-01-02T19:53:06.376Z,3.17
2019-01-02T19:55:38.726Z,5.53
2019-01-02T19:58:10.272Z,5.73
2019-01-02T20:00:41.722Z,7.33
2019-01-02T20:03:13.065Z,5.70
2019-01-02T20:05:44.679Z,6.23
2019-01-02T20:08:16.599Z,5.63
2019-01-02T20:10:47.929Z,6.63
2019-01-02T20:13:19.652Z,4.50
2019-01-02T20:15:51.452Z,4.23
2019-01-02T20:18:22.799Z,5.30
2019-01-02T20:20:54.454Z,4.47
2019-01-02T20:23:25.816Z,4.57
2019-01-02T20:25:57.479Z,3.97
2019-01-02T20:28:29.160Z,5.23
2019-01-02T20:31:01.575Z,4.07
2019-01-02T20:33:33.074Z,3.93
2019-01-02T20:36:04.476Z,5.10
2019-01-02T20:38:35.931Z,6.43
2019-01-02T20:41:07.357Z,4.27
2019-01-02T20:43:38.883Z,5.10
2019-01-02T20:46:11.763Z,4.43
2019-01-02T20:48:43.183Z,7.17
2019-01-02T20:51:14.657Z,5.27
2019-01-02T20:53:46.168Z,6.23
2019-01-02T20:56:18.103Z,5.80
2019-01-02T20:58:49.629Z,5.17
2019-01-02T21:01:21.082Z,5.83
2019-01-02T21:03:52.519Z,3.30
2019-01-02T21:06:23.956Z,4.17
2019-01-02T21:08:55.349Z,4.17
2019-01-02T21:11:26.883Z,5.00
2019-01-02T21:13:58.325Z,4.40
2019-01-02T21:16:29.760Z,3.83
2019-01-02T21:19:01.108Z,5.30
2019-01-02T21:21:32.582Z,6.80
2019-01-02T21:24:04.151Z,6.60
2019-01-02T21:26:35.920Z,14.00
2019-01-02T21:29:07.875Z,7.90
2019-01-02T21:31:39.371Z,7.27
2019-01-02T21:34:10.726Z,6.20
2019-01-02T21:36:42.191Z,7.07
2019-01-02T21:39:13.886Z,8.97
2019-01-02T21:41:45.303Z,8.10
2019-01-02T21:44:16.753Z,8.47
2019-01-02T21:46:48.780Z,6.67
2019-01-02T21:49:21.905Z,6.93
2019-01-02T21:51:53.416Z,6.63
2019-01-02T21:54:24.816Z,7.90
2019-01-02T21:56:56.289Z,6.07
2019-01-02T21:59:27.659Z,6.07
2019-01-02T22:01:59.116Z,7.03
2019-01-02T22:04:30.523Z,6.47
2019-01-02T22:07:01.962Z,5.63
2019-01-02T22:09:33.339Z,5.10
2019-01-02T22:12:04.811Z,4.83
2019-01-02T22:14:36.244Z,6.03
2019-01-02T22:17:07.681Z,7.33
2019-01-02T22:19:40.219Z,5.07
2019-01-02T22:22:11.608Z,6.37
2019-01-02T22:24:43.371Z,6.13
2019-01-02T22:27:14.808Z,5.53
2019-01-02T22:29:46.151Z,6.00
2019-01-02T22:32:17.675Z,6.77
2019-01-02T22:34:49.368Z,7.93
2019-01-02T22:37:20.928Z,7.63
2019-01-02T22:39:52.327Z,8.97
2019-01-02T22:42:23.685Z,6.20
2019-01-02T22:44:55.511Z,6.60
2019-01-02T22:47:28.009Z,5.57
2019-01-02T22:49:59.812Z,5.70
2019-01-02T22:52:31.249Z,5.80
2019-01-02T22:55:03.022Z,7.80
2019-01-02T22:57:34.455Z,5.77
2019-01-02T23:00:11.944Z,5.57
2019-01-02T23:03:01.432Z,7.67
2019-01-02T23:05:49.579Z,6.00
2019-01-02T23:08:39.982Z,5.63
2019-01-02T23:11:38.492Z,7.17
2019-01-02T23:14:38.346Z,5.93
2019-01-02T23:17:27.346Z,7.37
2019-01-02T23:20:21.830Z,6.37
2019-01-02T23:23:14.559Z,10.83
2019-01-02T23:26:11.079Z,7.07
2019-01-02T23:32:01.321Z,9.43
2019-01-02T23:34:50.560Z,6.33
2019-01-02T23:37:53.266Z,4.43
2019-01-02T23:40:43.635Z,5.53
2019-01-02T23:43:40.154Z,6.10
2019-01-02T23:46:30.528Z,7.20
2019-01-02T23:49:26.533Z,6.83
2019-01-02T23:52:25.980Z,7.97
2019-01-02T23:55:15.415Z,8.20
2019-01-02T23:58:04.326Z,5.43
